sensor_id;sensor_type;location;lat;lon;timestamp;temperature;humidity
38241;DHT22;24037;49.536;8.500;2023-02-15T00:00:23;0.80;99.90
38241;DHT22;24037;49.536;8.500;2023-02-15T00:02:49;0.80;99.90
38241;DHT22;24037;49.536;8.500;2023-02-15T00:05:15;0.80;99.90
38241;DHT22;24037;49.536;8.500;2023-02-15T00:07:41;0.80;99.90
38241;DHT22;24037;49.536;8.500;2023-02-15T00:10:07;0.70;99.90
38241;DHT22;24037;49.536;8.500;2023-02-15T00:12:33;0.70;99.90
38241;DHT22;24037;49.536;8.500;2023-02-15T00:14:59;0.80;99.90
38241;DHT22;24037;49.536;8.500;2023-02-15T00:17:27;0.80;99.90
38241;DHT22;24037;49.536;8.500;2023-02-15T00:19:53;0.80;99.90
38241;DHT22;24037;49.536;8.500;2023-02-15T00:22:19;0.80;99.90
38241;DHT22;24037;49.536;8.500;2023-02-15T00:24:45;0.80;99.90
38241;DHT22;24037;49.536;8.500;2023-02-15T00:27:11;0.80;99.90
38241;DHT22;24037;49.536;8.500;2023-02-15T00:29:38;0.80;99.90
38241;DHT22;24037;49.536;8.500;2023-02-15T00:32:04;0.80;99.90
38241;DHT22;24037;49.536;8.500;2023-02-15T00:34:30;0.80;99.90
38241;DHT22;24037;49.536;8.500;2023-02-15T00:36:56;0.80;99.90
38241;DHT22;24037;49.536;8.500;2023-02-15T00:39:22;0.80;99.90
38241;DHT22;24037;49.536;8.500;2023-02-15T00:41:49;0.70;99.90
38241;DHT22;24037;49.536;8.500;2023-02-15T00:44:15;0.70;99.90
38241;DHT22;24037;49.536;8.500;2023-02-15T00:46:41;0.70;99.90
38241;DHT22;24037;49.536;8.500;2023-02-15T00:49:09;0.80;99.90
38241;DHT22;24037;49.536;8.500;2023-02-15T00:51:35;0.80;99.90
38241;DHT22;24037;49.536;8.500;2023-02-15T00:54:01;0.80;99.90
38241;DHT22;24037;49.536;8.500;2023-02-15T00:56:29;0.80;99.90
38241;DHT22;24037;49.536;8.500;2023-02-15T00:58:55;0.80;99.90
38241;DHT22;24037;49.536;8.500;2023-02-15T01:01:21;0.70;99.90
38241;DHT22;24037;49.536;8.500;2023-02-15T01:03:47;0.80;99.90
38241;DHT22;24037;49.536;8.500;2023-02-15T01:06:14;0.70;99.90
38241;DHT22;24037;49.536;8.500;2023-02-15T01:08:43;0.70;99.90
38241;DHT22;24037;49.536;8.500;2023-02-15T01:11:10;0.70;99.90
38241;DHT22;24037;49.536;8.500;2023-02-15T01:13:36;0.70;99.90
38241;DHT22;24037;49.536;8.500;2023-02-15T01:16:02;0.70;99.90
38241;DHT22;24037;49.536;8.500;2023-02-15T01:18:28;0.80;99.90
38241;DHT22;24037;49.536;8.500;2023-02-15T01:20:54;0.70;99.90
38241;DHT22;24037;49.536;8.500;2023-02-15T01:23:20;0.70;99.90
38241;DHT22;24037;49.536;8.500;2023-02-15T01:25:46;0.70;99.90
38241;DHT22;24037;49.536;8.500;2023-02-15T01:28:12;0.80;99.90
38241;DHT22;24037;49.536;8.500;2023-02-15T01:30:39;0.80;99.90
38241;DHT22;24037;49.536;8.500;2023-02-15T01:33:05;0.80;99.90
38241;DHT22;24037;49.536;8.500;2023-02-15T01:35:31;0.70;99.90
38241;DHT22;24037;49.536;8.500;2023-02-15T01:37:57;0.70;99.90
38241;DHT22;24037;49.536;8.500;2023-02-15T01:40:23;0.70;99.90
38241;DHT22;24037;49.536;8.500;2023-02-15T01:42:50;0.70;99.90
38241;DHT22;24037;49.536;8.500;2023-02-15T01:45:19;0.70;99.90
38241;DHT22;24037;49.536;8.500;2023-02-15T01:50:54;0.70;99.90
38241;DHT22;24037;49.536;8.500;2023-02-15T01:55:45;0.60;99.90
38241;DHT22;24037;49.536;8.500;2023-02-15T01:58:14;0.60;99.90
38241;DHT22;24037;49.536;8.500;2023-02-15T02:00:40;0.70;99.90
38241;DHT22;24037;49.536;8.500;2023-02-15T02:03:06;0.70;99.90
38241;DHT22;24037;49.536;8.500;2023-02-15T02:05:32;0.60;99.90
38241;DHT22;24037;49.536;8.500;2023-02-15T02:07:59;0.60;99.90
38241;DHT22;24037;49.536;8.500;2023-02-15T02:10:26;0.60;99.90
38241;DHT22;24037;49.536;8.500;2023-02-15T02:12:59;0.60;99.90
38241;DHT22;24037;49.536;8.500;2023-02-15T02:15:29;0.70;99.90
38241;DHT22;24037;49.536;8.500;2023-02-15T02:18:08;0.70;99.90
38241;DHT22;24037;49.536;8.500;2023-02-15T02:20:43;0.70;99.90
38241;DHT22;24037;49.536;8.500;2023-02-15T02:23:18;0.60;99.90
38241;DHT22;24037;49.536;8.500;2023-02-15T02:28:49;0.60;99.90
38241;DHT22;24037;49.536;8.500;2023-02-15T02:34:09;0.60;99.90
38241;DHT22;24037;49.536;8.500;2023-02-15T02:36:59;0.70;99.90
38241;DHT22;24037;49.536;8.500;2023-02-15T02:39:29;0.70;99.90
38241;DHT22;24037;49.536;8.500;2023-02-15T02:42:05;0.70;99.90
38241;DHT22;24037;49.536;8.500;2023-02-15T02:44:38;0.70;99.90
38241;DHT22;24037;49.536;8.500;2023-02-15T02:47:12;0.70;99.90
38241;DHT22;24037;49.536;8.500;2023-02-15T02:49:41;0.70;99.90
38241;DHT22;24037;49.536;8.500;2023-02-15T02:52:34;0.70;99.90
38241;DHT22;24037;49.536;8.500;2023-02-15T02:54:54;0.70;99.90
38241;DHT22;24037;49.536;8.500;2023-02-15T02:57:20;0.70;99.90
38241;DHT22;24037;49.536;8.500;2023-02-15T02:59:48;0.60;99.90
38241;DHT22;24037;49.536;8.500;2023-02-15T03:02:25;0.70;99.90
38241;DHT22;24037;49.536;8.500;2023-02-15T03:04:54;0.70;99.90
38241;DHT22;24037;49.536;8.500;2023-02-15T03:07:24;0.60;99.90
38241;DHT22;24037;49.536;8.500;2023-02-15T03:09:54;0.70;99.90
38241;DHT22;24037;49.536;8.500;2023-02-15T03:12:24;0.60;99.90
38241;DHT22;24037;49.536;8.500;2023-02-15T03:14:56;0.60;99.90
38241;DHT22;24037;49.536;8.500;2023-02-15T03:17:23;0.70;99.90
38241;DHT22;24037;49.536;8.500;2023-02-15T03:19:52;0.70;99.90
38241;DHT22;24037;49.536;8.500;2023-02-15T03:22:21;0.70;99.90
38241;DHT22;24037;49.536;8.500;2023-02-15T03:27:17;0.70;99.90
38241;DHT22;24037;49.536;8.500;2023-02-15T03:29:46;0.70;99.90
38241;DHT22;24037;49.536;8.500;2023-02-15T03:32:13;0.70;99.90
38241;DHT22;24037;49.536;8.500;2023-02-15T03:34:40;0.70;99.90
38241;DHT22;24037;49.536;8.500;2023-02-15T03:39:51;0.70;99.90
38241;DHT22;24037;49.536;8.500;2023-02-15T03:45:08;0.70;99.90
38241;DHT22;24037;49.536;8.500;2023-02-15T03:47:39;0.70;99.90
38241;DHT22;24037;49.536;8.500;2023-02-15T03:50:13;0.70;99.90
38241;DHT22;24037;49.536;8.500;2023-02-15T03:52:59;0.70;99.90
38241;DHT22;24037;49.536;8.500;2023-02-15T03:55:27;0.70;99.90
38241;DHT22;24037;49.536;8.500;2023-02-15T03:57:53;0.70;99.90
38241;DHT22;24037;49.536;8.500;2023-02-15T04:00:39;0.70;99.90
38241;DHT22;24037;49.536;8.500;2023-02-15T04:03:37;0.70;99.90
38241;DHT22;24037;49.536;8.500;2023-02-15T04:06:05;0.70;99.90
38241;DHT22;24037;49.536;8.500;2023-02-15T04:08:31;0.70;99.90
38241;DHT22;24037;49.536;8.500;2023-02-15T04:11:15;0.70;99.90
38241;DHT22;24037;49.536;8.500;2023-02-15T04:13:41;0.70;99.90
38241;DHT22;24037;49.536;8.500;2023-02-15T04:16:07;0.70;99.90
38241;DHT22;24037;49.536;8.500;2023-02-15T04:18:36;0.70;99.90
38241;DHT22;24037;49.536;8.500;2023-02-15T04:21:22;0.70;99.90
38241;DHT22;24037;49.536;8.500;2023-02-15T04:24:06;0.70;99.90
38241;DHT22;24037;49.536;8.500;2023-02-15T04:26:51;0.70;99.90
38241;DHT22;24037;49.536;8.500;2023-02-15T04:29:21;0.70;99.90
38241;DHT22;24037;49.536;8.500;2023-02-15T04:31:48;0.70;99.90
38241;DHT22;24037;49.536;8.500;2023-02-15T04:34:14;0.80;99.90
38241;DHT22;24037;49.536;8.500;2023-02-15T04:36:40;0.70;99.90
38241;DHT22;24037;49.536;8.500;2023-02-15T04:39:07;0.80;99.90
38241;DHT22;24037;49.536;8.500;2023-02-15T04:41:33;0.80;99.90
38241;DHT22;24037;49.536;8.500;2023-02-15T04:43:59;0.80;99.90
38241;DHT22;24037;49.536;8.500;2023-02-15T04:46:26;0.70;99.90
38241;DHT22;24037;49.536;8.500;2023-02-15T04:48:53;0.80;99.90
38241;DHT22;24037;49.536;8.500;2023-02-15T04:51:19;0.80;99.90
38241;DHT22;24037;49.536;8.500;2023-02-15T04:53:45;0.80;99.90
38241;DHT22;24037;49.536;8.500;2023-02-15T04:56:11;0.80;99.90
38241;DHT22;24037;49.536;8.500;2023-02-15T04:58:37;0.80;99.90
38241;DHT22;24037;49.536;8.500;2023-02-15T05:01:07;0.70;99.90
38241;DHT22;24037;49.536;8.500;2023-02-15T05:03:33;0.80;99.90
38241;DHT22;24037;49.536;8.500;2023-02-15T05:05:59;0.80;99.90
38241;DHT22;24037;49.536;8.500;2023-02-15T05:08:24;0.80;99.90
38241;DHT22;24037;49.536;8.500;2023-02-15T05:10:50;0.70;99.90
38241;DHT22;24037;49.536;8.500;2023-02-15T05:13:17;0.80;99.90
38241;DHT22;24037;49.536;8.500;2023-02-15T05:15:46;0.70;99.90
38241;DHT22;24037;49.536;8.500;2023-02-15T05:18:12;0.80;99.90
38241;DHT22;24037;49.536;8.500;2023-02-15T05:20:38;0.80;99.90
38241;DHT22;24037;49.536;8.500;2023-02-15T05:23:04;0.70;99.90
38241;DHT22;24037;49.536;8.500;2023-02-15T05:25:30;0.70;99.90
38241;DHT22;24037;49.536;8.500;2023-02-15T05:28:15;0.70;99.90
38241;DHT22;24037;49.536;8.500;2023-02-15T05:30:48;0.70;99.90
38241;DHT22;24037;49.536;8.500;2023-02-15T05:33:14;0.70;99.90
38241;DHT22;24037;49.536;8.500;2023-02-15T05:35:40;0.60;99.90
38241;DHT22;24037;49.536;8.500;2023-02-15T05:38:06;0.60;99.90
38241;DHT22;24037;49.536;8.500;2023-02-15T05:40:32;0.60;99.90
38241;DHT22;24037;49.536;8.500;2023-02-15T05:42:58;0.60;99.90
38241;DHT22;24037;49.536;8.500;2023-02-15T05:45:24;0.60;99.90
38241;DHT22;24037;49.536;8.500;2023-02-15T05:47:50;0.60;99.90
38241;DHT22;24037;49.536;8.500;2023-02-15T05:50:16;0.60;99.90
38241;DHT22;24037;49.536;8.500;2023-02-15T05:52:46;0.60;99.90
38241;DHT22;24037;49.536;8.500;2023-02-15T05:55:12;0.50;99.90
38241;DHT22;24037;49.536;8.500;2023-02-15T05:57:38;0.60;99.90
38241;DHT22;24037;49.536;8.500;2023-02-15T06:00:04;0.60;99.90
38241;DHT22;24037;49.536;8.500;2023-02-15T06:02:37;0.60;99.90
38241;DHT22;24037;49.536;8.500;2023-02-15T06:05:04;0.60;99.90
38241;DHT22;24037;49.536;8.500;2023-02-15T06:07:30;0.60;99.90
38241;DHT22;24037;49.536;8.500;2023-02-15T06:09:59;0.60;99.90
38241;DHT22;24037;49.536;8.500;2023-02-15T06:12:25;0.60;99.90
38241;DHT22;24037;49.536;8.500;2023-02-15T06:14:51;0.60;99.90
38241;DHT22;24037;49.536;8.500;2023-02-15T06:17:17;0.60;99.90
38241;DHT22;24037;49.536;8.500;2023-02-15T06:19:43;0.60;99.90
38241;DHT22;24037;49.536;8.500;2023-02-15T06:22:09;0.70;99.90
38241;DHT22;24037;49.536;8.500;2023-02-15T06:24:35;0.70;99.90
38241;DHT22;24037;49.536;8.500;2023-02-15T06:27:01;0.70;99.90
38241;DHT22;24037;49.536;8.500;2023-02-15T06:29:27;0.70;99.90
38241;DHT22;24037;49.536;8.500;2023-02-15T06:31:52;0.70;99.90
38241;DHT22;24037;49.536;8.500;2023-02-15T06:34:18;0.70;99.90
38241;DHT22;24037;49.536;8.500;2023-02-15T06:36:44;0.70;99.90
38241;DHT22;24037;49.536;8.500;2023-02-15T06:39:10;0.70;99.90
38241;DHT22;24037;49.536;8.500;2023-02-15T06:41:36;0.80;99.90
38241;DHT22;24037;49.536;8.500;2023-02-15T06:44:02;0.80;99.90
38241;DHT22;24037;49.536;8.500;2023-02-15T06:46:28;0.90;99.90
38241;DHT22;24037;49.536;8.500;2023-02-15T06:48:54;0.90;99.90
38241;DHT22;24037;49.536;8.500;2023-02-15T06:51:20;1.00;99.90
38241;DHT22;24037;49.536;8.500;2023-02-15T06:53:46;1.00;99.90
38241;DHT22;24037;49.536;8.500;2023-02-15T06:56:12;1.00;99.90
38241;DHT22;24037;49.536;8.500;2023-02-15T06:58:39;1.10;99.90
38241;DHT22;24037;49.536;8.500;2023-02-15T07:01:05;1.10;99.90
38241;DHT22;24037;49.536;8.500;2023-02-15T07:03:32;1.10;99.90
38241;DHT22;24037;49.536;8.500;2023-02-15T07:05:58;1.10;99.90
38241;DHT22;24037;49.536;8.500;2023-02-15T07:08:24;1.10;99.90
38241;DHT22;24037;49.536;8.500;2023-02-15T07:10:51;1.10;99.90
38241;DHT22;24037;49.536;8.500;2023-02-15T07:13:18;1.10;99.90
38241;DHT22;24037;49.536;8.500;2023-02-15T07:15:44;1.10;99.90
38241;DHT22;24037;49.536;8.500;2023-02-15T07:18:10;1.00;99.90
38241;DHT22;24037;49.536;8.500;2023-02-15T07:20:36;1.00;99.90
38241;DHT22;24037;49.536;8.500;2023-02-15T07:23:03;1.00;99.90
38241;DHT22;24037;49.536;8.500;2023-02-15T07:25:29;1.00;99.90
38241;DHT22;24037;49.536;8.500;2023-02-15T07:27:57;1.00;99.90
38241;DHT22;24037;49.536;8.500;2023-02-15T07:30:23;1.00;99.90
38241;DHT22;24037;49.536;8.500;2023-02-15T07:32:49;1.00;99.90
38241;DHT22;24037;49.536;8.500;2023-02-15T07:35:34;1.00;99.90
38241;DHT22;24037;49.536;8.500;2023-02-15T07:38:00;1.00;99.90
38241;DHT22;24037;49.536;8.500;2023-02-15T07:40:26;1.00;99.90
38241;DHT22;24037;49.536;8.500;2023-02-15T07:42:52;1.00;99.90
38241;DHT22;24037;49.536;8.500;2023-02-15T07:45:20;1.00;99.90
38241;DHT22;24037;49.536;8.500;2023-02-15T07:47:47;1.10;99.90
38241;DHT22;24037;49.536;8.500;2023-02-15T07:50:13;1.00;99.90
38241;DHT22;24037;49.536;8.500;2023-02-15T07:52:39;1.00;99.90
38241;DHT22;24037;49.536;8.500;2023-02-15T07:55:05;1.10;99.90
38241;DHT22;24037;49.536;8.500;2023-02-15T07:57:31;1.10;99.90
38241;DHT22;24037;49.536;8.500;2023-02-15T07:59:57;1.10;99.90
38241;DHT22;24037;49.536;8.500;2023-02-15T08:02:23;1.20;99.90
38241;DHT22;24037;49.536;8.500;2023-02-15T08:04:49;1.20;99.90
38241;DHT22;24037;49.536;8.500;2023-02-15T08:07:15;1.20;99.90
38241;DHT22;24037;49.536;8.500;2023-02-15T08:09:41;1.30;99.90
38241;DHT22;24037;49.536;8.500;2023-02-15T08:12:07;1.30;99.90
38241;DHT22;24037;49.536;8.500;2023-02-15T08:14:33;1.30;99.90
38241;DHT22;24037;49.536;8.500;2023-02-15T08:16:59;1.40;99.90
38241;DHT22;24037;49.536;8.500;2023-02-15T08:19:29;1.40;99.90
38241;DHT22;24037;49.536;8.500;2023-02-15T08:21:59;1.40;99.90
38241;DHT22;24037;49.536;8.500;2023-02-15T08:24:26;1.50;99.90
38241;DHT22;24037;49.536;8.500;2023-02-15T08:26:52;1.50;99.90
38241;DHT22;24037;49.536;8.500;2023-02-15T08:29:20;1.50;99.90
38241;DHT22;24037;49.536;8.500;2023-02-15T08:31:48;1.50;99.90
38241;DHT22;24037;49.536;8.500;2023-02-15T08:34:18;1.60;99.90
38241;DHT22;24037;49.536;8.500;2023-02-15T08:36:44;1.60;99.90
38241;DHT22;24037;49.536;8.500;2023-02-15T08:39:13;1.60;99.90
38241;DHT22;24037;49.536;8.500;2023-02-15T08:41:41;1.60;99.90
38241;DHT22;24037;49.536;8.500;2023-02-15T08:44:07;1.60;99.90
38241;DHT22;24037;49.536;8.500;2023-02-15T08:46:35;1.60;99.90
38241;DHT22;24037;49.536;8.500;2023-02-15T08:49:01;1.60;99.90
38241;DHT22;24037;49.536;8.500;2023-02-15T08:51:29;1.60;99.90
38241;DHT22;24037;49.536;8.500;2023-02-15T08:53:56;1.70;99.90
38241;DHT22;24037;49.536;8.500;2023-02-15T08:56:26;1.60;99.90
38241;DHT22;24037;49.536;8.500;2023-02-15T08:58:52;1.60;99.90
38241;DHT22;24037;49.536;8.500;2023-02-15T09:01:20;1.60;99.90
38241;DHT22;24037;49.536;8.500;2023-02-15T09:03:47;1.60;99.90
38241;DHT22;24037;49.536;8.500;2023-02-15T09:06:16;1.60;99.90
38241;DHT22;24037;49.536;8.500;2023-02-15T09:08:42;1.60;99.90
38241;DHT22;24037;49.536;8.500;2023-02-15T09:13:34;1.50;99.90
38241;DHT22;24037;49.536;8.500;2023-02-15T09:16:04;1.50;99.90
38241;DHT22;24037;49.536;8.500;2023-02-15T09:18:31;1.50;99.90
38241;DHT22;24037;49.536;8.500;2023-02-15T09:21:09;1.50;99.90
38241;DHT22;24037;49.536;8.500;2023-02-15T09:23:36;1.60;99.90
38241;DHT22;24037;49.536;8.500;2023-02-15T09:26:06;1.50;99.90
38241;DHT22;24037;49.536;8.500;2023-02-15T09:28:32;1.50;99.90
38241;DHT22;24037;49.536;8.500;2023-02-15T09:31:15;1.40;99.90
38241;DHT22;24037;49.536;8.500;2023-02-15T09:33:42;1.40;99.90
38241;DHT22;24037;49.536;8.500;2023-02-15T09:39:13;1.40;99.90
38241;DHT22;24037;49.536;8.500;2023-02-15T09:49:20;1.50;99.90
38241;DHT22;24037;49.536;8.500;2023-02-15T09:54:39;1.40;99.90
38241;DHT22;24037;49.536;8.500;2023-02-15T09:57:07;1.50;99.90
38241;DHT22;24037;49.536;8.500;2023-02-15T10:12:29;1.40;99.90
38241;DHT22;24037;49.536;8.500;2023-02-15T10:15:03;1.40;99.90
38241;DHT22;24037;49.536;8.500;2023-02-15T10:25:43;1.40;99.90
38241;DHT22;24037;49.536;8.500;2023-02-15T10:28:17;1.50;99.90
38241;DHT22;24037;49.536;8.500;2023-02-15T10:30:48;1.40;99.90
38241;DHT22;24037;49.536;8.500;2023-02-15T10:33:20;1.50;99.90
38241;DHT22;24037;49.536;8.500;2023-02-15T10:35:57;1.50;99.90
38241;DHT22;24037;49.536;8.500;2023-02-15T10:38:32;1.60;99.90
38241;DHT22;24037;49.536;8.500;2023-02-15T10:49:06;1.70;99.90
38241;DHT22;24037;49.536;8.500;2023-02-15T10:54:05;1.70;99.90
38241;DHT22;24037;49.536;8.500;2023-02-15T10:56:51;1.70;99.90
38241;DHT22;24037;49.536;8.500;2023-02-15T11:06:54;1.60;99.90
38241;DHT22;24037;49.536;8.500;2023-02-15T11:09:23;1.60;99.90
38241;DHT22;24037;49.536;8.500;2023-02-15T11:11:51;1.60;99.90
38241;DHT22;24037;49.536;8.500;2023-02-15T11:16:49;1.80;99.90
38241;DHT22;24037;49.536;8.500;2023-02-15T11:21:53;1.90;94.20
38241;DHT22;24037;49.536;8.500;2023-02-15T11:24:20;1.90;90.50
38241;DHT22;24037;49.536;8.500;2023-02-15T11:26:49;1.80;74.70
38241;DHT22;24037;49.536;8.500;2023-02-15T11:29:52;1.70;61.70
38241;DHT22;24037;49.536;8.500;2023-02-15T11:32:19;1.70;58.20
38241;DHT22;24037;49.536;8.500;2023-02-15T11:34:51;1.80;70.90
38241;DHT22;24037;49.536;8.500;2023-02-15T11:37:19;1.80;63.80
38241;DHT22;24037;49.536;8.500;2023-02-15T11:39:46;1.70;45.30
38241;DHT22;24037;49.536;8.500;2023-02-15T11:42:19;1.70;47.80
38241;DHT22;24037;49.536;8.500;2023-02-15T11:44:53;1.70;50.90
38241;DHT22;24037;49.536;8.500;2023-02-15T11:47:20;1.70;44.50
38241;DHT22;24037;49.536;8.500;2023-02-15T11:49:46;1.70;44.90
38241;DHT22;24037;49.536;8.500;2023-02-15T11:52:13;1.80;43.50
38241;DHT22;24037;49.536;8.500;2023-02-15T11:54:44;1.80;47.00
38241;DHT22;24037;49.536;8.500;2023-02-15T11:57:15;1.90;46.00
38241;DHT22;24037;49.536;8.500;2023-02-15T11:59:48;2.00;44.60
38241;DHT22;24037;49.536;8.500;2023-02-15T12:02:21;2.00;33.70
38241;DHT22;24037;49.536;8.500;2023-02-15T12:04:52;2.00;26.50
38241;DHT22;24037;49.536;8.500;2023-02-15T12:07:21;2.10;23.00
38241;DHT22;24037;49.536;8.500;2023-02-15T12:09:53;2.20;23.10
38241;DHT22;24037;49.536;8.500;2023-02-15T12:12:23;2.30;20.00
38241;DHT22;24037;49.536;8.500;2023-02-15T12:14:50;2.40;20.00
38241;DHT22;24037;49.536;8.500;2023-02-15T12:17:17;2.40;14.60
38241;DHT22;24037;49.536;8.500;2023-02-15T12:19:43;2.50;9.90
38241;DHT22;24037;49.536;8.500;2023-02-15T12:22:22;2.40;1.00
38241;DHT22;24037;49.536;8.500;2023-02-15T12:24:49;2.40;1.00
38241;DHT22;24037;49.536;8.500;2023-02-15T12:29:52;2.60;1.00
38241;DHT22;24037;49.536;8.500;2023-02-15T12:32:22;2.80;1.00
38241;DHT22;24037;49.536;8.500;2023-02-15T12:34:50;2.90;1.00
38241;DHT22;24037;49.536;8.500;2023-02-15T12:37:19;2.80;1.00
38241;DHT22;24037;49.536;8.500;2023-02-15T12:39:56;2.70;1.00
38241;DHT22;24037;49.536;8.500;2023-02-15T12:42:23;2.60;1.00
38241;DHT22;24037;49.536;8.500;2023-02-15T12:45:00;2.60;1.00
38241;DHT22;24037;49.536;8.500;2023-02-15T12:47:27;2.60;1.00
38241;DHT22;24037;49.536;8.500;2023-02-15T12:52:37;2.70;1.00
38241;DHT22;24037;49.536;8.500;2023-02-15T12:55:10;2.80;1.00
38241;DHT22;24037;49.536;8.500;2023-02-15T12:57:37;2.80;1.00
38241;DHT22;24037;49.536;8.500;2023-02-15T13:00:24;3.00;1.00
38241;DHT22;24037;49.536;8.500;2023-02-15T13:02:57;3.00;1.00
38241;DHT22;24037;49.536;8.500;2023-02-15T13:05:26;3.20;1.00
38241;DHT22;24037;49.536;8.500;2023-02-15T13:07:58;3.20;1.00
38241;DHT22;24037;49.536;8.500;2023-02-15T13:10:27;3.30;1.00
38241;DHT22;24037;49.536;8.500;2023-02-15T13:12:54;3.30;1.00
38241;DHT22;24037;49.536;8.500;2023-02-15T13:15:23;3.10;1.00
38241;DHT22;24037;49.536;8.500;2023-02-15T13:17:50;3.10;1.00
38241;DHT22;24037;49.536;8.500;2023-02-15T13:20:17;3.10;1.00
38241;DHT22;24037;49.536;8.500;2023-02-15T13:22:45;3.10;1.00
38241;DHT22;24037;49.536;8.500;2023-02-15T13:25:22;3.10;1.00
38241;DHT22;24037;49.536;8.500;2023-02-15T13:27:50;3.20;1.00
38241;DHT22;24037;49.536;8.500;2023-02-15T13:32:47;3.10;1.00
38241;DHT22;24037;49.536;8.500;2023-02-15T13:35:15;3.10;1.00
38241;DHT22;24037;49.536;8.500;2023-02-15T13:40:27;3.30;1.00
38241;DHT22;24037;49.536;8.500;2023-02-15T13:43:19;3.10;1.00
38241;DHT22;24037;49.536;8.500;2023-02-15T13:51:21;2.70;1.00
38241;DHT22;24037;49.536;8.500;2023-02-15T13:59:06;3.00;1.00
38241;DHT22;24037;49.536;8.500;2023-02-15T14:01:40;3.10;1.00
38241;DHT22;24037;49.536;8.500;2023-02-15T14:11:35;3.10;1.00
38241;DHT22;24037;49.536;8.500;2023-02-15T14:32:10;3.70;1.00
38241;DHT22;24037;49.536;8.500;2023-02-15T14:34:42;3.70;1.00
38241;DHT22;24037;49.536;8.500;2023-02-15T14:37:10;3.70;1.00
38241;DHT22;24037;49.536;8.500;2023-02-15T14:42:59;3.60;1.00
38241;DHT22;24037;49.536;8.500;2023-02-15T14:45:39;3.60;1.00
38241;DHT22;24037;49.536;8.500;2023-02-15T14:48:15;3.70;1.00
38241;DHT22;24037;49.536;8.500;2023-02-15T14:50:42;3.70;1.00
38241;DHT22;24037;49.536;8.500;2023-02-15T14:55:40;3.70;1.00
38241;DHT22;24037;49.536;8.500;2023-02-15T14:58:10;3.60;1.00
38241;DHT22;24037;49.536;8.500;2023-02-15T15:00:40;3.50;1.00
38241;DHT22;24037;49.536;8.500;2023-02-15T15:03:10;3.60;1.00
38241;DHT22;24037;49.536;8.500;2023-02-15T15:05:45;3.60;1.00
38241;DHT22;24037;49.536;8.500;2023-02-15T15:08:25;3.60;1.00
38241;DHT22;24037;49.536;8.500;2023-02-15T15:10:52;3.40;1.00
38241;DHT22;24037;49.536;8.500;2023-02-15T15:15:56;3.50;1.00
38241;DHT22;24037;49.536;8.500;2023-02-15T15:24:05;3.60;1.00
38241;DHT22;24037;49.536;8.500;2023-02-15T15:26:32;3.60;1.00
38241;DHT22;24037;49.536;8.500;2023-02-15T15:29:03;3.60;1.00
38241;DHT22;24037;49.536;8.500;2023-02-15T15:42:07;3.70;1.00
38241;DHT22;24037;49.536;8.500;2023-02-15T15:49:55;3.50;1.00
38241;DHT22;24037;49.536;8.500;2023-02-15T15:52:21;3.50;1.00
38241;DHT22;24037;49.536;8.500;2023-02-15T15:54:48;3.40;1.00
38241;DHT22;24037;49.536;8.500;2023-02-15T15:57:18;3.30;1.00
38241;DHT22;24037;49.536;8.500;2023-02-15T15:59:45;3.20;1.00
38241;DHT22;24037;49.536;8.500;2023-02-15T16:02:15;3.10;1.00
38241;DHT22;24037;49.536;8.500;2023-02-15T16:04:41;3.00;1.00
38241;DHT22;24037;49.536;8.500;2023-02-15T16:07:19;2.80;1.00
38241;DHT22;24037;49.536;8.500;2023-02-15T16:12:21;2.70;1.00
38241;DHT22;24037;49.536;8.500;2023-02-15T16:14:47;2.60;1.00
38241;DHT22;24037;49.536;8.500;2023-02-15T16:17:26;2.50;1.00
38241;DHT22;24037;49.536;8.500;2023-02-15T16:19:57;2.40;1.00
38241;DHT22;24037;49.536;8.500;2023-02-15T16:22:24;2.40;1.00
38241;DHT22;24037;49.536;8.500;2023-02-15T16:30:25;2.10;1.00
38241;DHT22;24037;49.536;8.500;2023-02-15T16:32:52;2.00;1.00
38241;DHT22;24037;49.536;8.500;2023-02-15T16:35:19;2.00;1.00
38241;DHT22;24037;49.536;8.500;2023-02-15T16:37:46;1.80;1.00
38241;DHT22;24037;49.536;8.500;2023-02-15T16:42:46;1.70;1.00
38241;DHT22;24037;49.536;8.500;2023-02-15T16:45:14;1.60;2.30
38241;DHT22;24037;49.536;8.500;2023-02-15T16:47:43;1.50;5.60
38241;DHT22;24037;49.536;8.500;2023-02-15T16:50:20;1.50;8.40
38241;DHT22;24037;49.536;8.500;2023-02-15T16:52:46;1.40;11.20
38241;DHT22;24037;49.536;8.500;2023-02-15T16:55:20;1.30;15.40
38241;DHT22;24037;49.536;8.500;2023-02-15T16:57:47;1.20;17.10
38241;DHT22;24037;49.536;8.500;2023-02-15T17:00:20;1.20;16.60
38241;DHT22;24037;49.536;8.500;2023-02-15T17:03:05;1.10;17.70
38241;DHT22;24037;49.536;8.500;2023-02-15T17:05:33;1.00;21.30
38241;DHT22;24037;49.536;8.500;2023-02-15T17:08:18;1.00;23.70
38241;DHT22;24037;49.536;8.500;2023-02-15T17:11:01;0.90;23.60
38241;DHT22;24037;49.536;8.500;2023-02-15T17:13:28;0.70;22.40
38241;DHT22;24037;49.536;8.500;2023-02-15T17:18:23;0.50;26.30
38241;DHT22;24037;49.536;8.500;2023-02-15T17:20:50;0.50;27.90
38241;DHT22;24037;49.536;8.500;2023-02-15T17:23:37;0.40;28.70
38241;DHT22;24037;49.536;8.500;2023-02-15T17:26:17;0.30;29.70
38241;DHT22;24037;49.536;8.500;2023-02-15T17:28:49;0.20;31.30
38241;DHT22;24037;49.536;8.500;2023-02-15T17:31:16;0.10;37.40
38241;DHT22;24037;49.536;8.500;2023-02-15T17:33:42;0.00;44.30
38241;DHT22;24037;49.536;8.500;2023-02-15T17:36:12;-0.10;46.50
38241;DHT22;24037;49.536;8.500;2023-02-15T17:41:26;-0.10;53.50
38241;DHT22;24037;49.536;8.500;2023-02-15T17:43:52;-0.20;54.70
38241;DHT22;24037;49.536;8.500;2023-02-15T17:46:18;-0.20;59.80
38241;DHT22;24037;49.536;8.500;2023-02-15T17:48:48;-0.20;64.90
38241;DHT22;24037;49.536;8.500;2023-02-15T17:51:15;-0.20;67.60
38241;DHT22;24037;49.536;8.500;2023-02-15T17:53:41;-0.10;70.00
38241;DHT22;24037;49.536;8.500;2023-02-15T17:56:34;0.00;75.20
38241;DHT22;24037;49.536;8.500;2023-02-15T17:59:00;0.00;72.30
38241;DHT22;24037;49.536;8.500;2023-02-15T18:01:26;-0.10;60.00
38241;DHT22;24037;49.536;8.500;2023-02-15T18:04:11;-0.30;51.90
38241;DHT22;24037;49.536;8.500;2023-02-15T18:06:56;-0.40;52.40
38241;DHT22;24037;49.536;8.500;2023-02-15T18:09:40;-0.50;52.70
38241;DHT22;24037;49.536;8.500;2023-02-15T18:12:29;-0.60;52.70
38241;DHT22;24037;49.536;8.500;2023-02-15T18:14:55;-0.60;57.90
38241;DHT22;24037;49.536;8.500;2023-02-15T18:17:32;-0.50;64.10
38241;DHT22;24037;49.536;8.500;2023-02-15T18:19:59;-0.60;57.50
38241;DHT22;24037;49.536;8.500;2023-02-15T18:22:26;-0.60;53.60
38241;DHT22;24037;49.536;8.500;2023-02-15T18:24:53;-0.40;57.80
38241;DHT22;24037;49.536;8.500;2023-02-15T18:27:19;-0.30;59.00
38241;DHT22;24037;49.536;8.500;2023-02-15T18:29:46;-0.40;54.10
38241;DHT22;24037;49.536;8.500;2023-02-15T18:32:17;-0.50;42.10
38241;DHT22;24037;49.536;8.500;2023-02-15T18:34:44;-0.70;36.40
38241;DHT22;24037;49.536;8.500;2023-02-15T18:37:16;-0.80;41.20
38241;DHT22;24037;49.536;8.500;2023-02-15T18:39:49;-0.80;42.80
38241;DHT22;24037;49.536;8.500;2023-02-15T18:42:29;-0.70;49.30
38241;DHT22;24037;49.536;8.500;2023-02-15T18:45:01;-0.60;54.00
38241;DHT22;24037;49.536;8.500;2023-02-15T18:47:30;-0.60;52.60
38241;DHT22;24037;49.536;8.500;2023-02-15T18:49:56;-0.60;49.20
38241;DHT22;24037;49.536;8.500;2023-02-15T18:52:22;-0.50;50.00